sensor_id;sensor_type;location;lat;lon;timestamp;temperature;humidity
62998;DHT22;55949;52.590;7.330;2023-03-01T00:00:17;-0.20;99.90
62998;DHT22;55949;52.590;7.330;2023-03-01T00:01:20;0.20;99.90
62998;DHT22;55949;52.590;7.330;2023-03-01T00:02:21;0.30;99.90
62998;DHT22;55949;52.590;7.330;2023-03-01T00:03:22;0.20;99.90
62998;DHT22;55949;52.590;7.330;2023-03-01T00:04:23;0.10;99.90
62998;DHT22;55949;52.590;7.330;2023-03-01T00:05:23;0.00;99.90
62998;DHT22;55949;52.590;7.330;2023-03-01T00:06:25;-0.10;99.90
62998;DHT22;55949;52.590;7.330;2023-03-01T00:07:26;-0.10;99.90
62998;DHT22;55949;52.590;7.330;2023-03-01T00:08:27;-0.20;99.90
62998;DHT22;55949;52.590;7.330;2023-03-01T00:09:28;-0.30;99.90
62998;DHT22;55949;52.590;7.330;2023-03-01T00:10:28;-0.20;99.90
62998;DHT22;55949;52.590;7.330;2023-03-01T00:11:31;-0.10;99.90
62998;DHT22;55949;52.590;7.330;2023-03-01T00:12:32;0.00;99.90
62998;DHT22;55949;52.590;7.330;2023-03-01T00:13:33;0.00;99.90
62998;DHT22;55949;52.590;7.330;2023-03-01T00:14:35;-0.10;99.90
62998;DHT22;55949;52.590;7.330;2023-03-01T00:15:40;-0.20;99.90
62998;DHT22;55949;52.590;7.330;2023-03-01T00:16:43;-0.10;99.90
62998;DHT22;55949;52.590;7.330;2023-03-01T00:17:44;0.20;99.90
62998;DHT22;55949;52.590;7.330;2023-03-01T00:18:45;0.10;99.90
62998;DHT22;55949;52.590;7.330;2023-03-01T00:19:46;0.10;99.90
62998;DHT22;55949;52.590;7.330;2023-03-01T00:20:54;0.20;99.90
62998;DHT22;55949;52.590;7.330;2023-03-01T00:21:54;0.30;99.90
62998;DHT22;55949;52.590;7.330;2023-03-01T00:22:55;0.40;99.90
62998;DHT22;55949;52.590;7.330;2023-03-01T00:23:56;0.60;99.90
62998;DHT22;55949;52.590;7.330;2023-03-01T00:24:57;0.70;99.90
62998;DHT22;55949;52.590;7.330;2023-03-01T00:25:58;0.60;99.90
62998;DHT22;55949;52.590;7.330;2023-03-01T00:26:58;0.50;99.90
62998;DHT22;55949;52.590;7.330;2023-03-01T00:27:59;0.40;99.90
62998;DHT22;55949;52.590;7.330;2023-03-01T00:29:00;0.30;99.90
62998;DHT22;55949;52.590;7.330;2023-03-01T00:30:01;0.10;99.90
62998;DHT22;55949;52.590;7.330;2023-03-01T00:31:22;-0.10;99.90
62998;DHT22;55949;52.590;7.330;2023-03-01T00:32:23;-0.30;99.90
62998;DHT22;55949;52.590;7.330;2023-03-01T00:33:24;-0.30;99.90
62998;DHT22;55949;52.590;7.330;2023-03-01T00:34:24;-0.30;99.90
62998;DHT22;55949;52.590;7.330;2023-03-01T00:35:25;-0.30;99.90
62998;DHT22;55949;52.590;7.330;2023-03-01T00:36:28;-0.30;99.90
62998;DHT22;55949;52.590;7.330;2023-03-01T00:37:29;-0.40;99.90
62998;DHT22;55949;52.590;7.330;2023-03-01T00:38:30;-0.50;99.90
62998;DHT22;55949;52.590;7.330;2023-03-01T00:39:31;-0.50;99.90
62998;DHT22;55949;52.590;7.330;2023-03-01T00:40:34;-0.60;99.90
62998;DHT22;55949;52.590;7.330;2023-03-01T00:41:35;-0.60;99.90
62998;DHT22;55949;52.590;7.330;2023-03-01T00:42:36;-0.60;99.90
62998;DHT22;55949;52.590;7.330;2023-03-01T00:43:37;-0.60;99.90
62998;DHT22;55949;52.590;7.330;2023-03-01T00:44:38;-0.30;99.90
62998;DHT22;55949;52.590;7.330;2023-03-01T00:45:38;-0.20;99.90
62998;DHT22;55949;52.590;7.330;2023-03-01T00:46:39;-0.10;99.90
62998;DHT22;55949;52.590;7.330;2023-03-01T00:47:40;-0.10;99.90
62998;DHT22;55949;52.590;7.330;2023-03-01T00:48:41;-0.10;99.90
62998;DHT22;55949;52.590;7.330;2023-03-01T00:49:42;-0.10;99.90
62998;DHT22;55949;52.590;7.330;2023-03-01T00:50:42;-0.30;99.90
62998;DHT22;55949;52.590;7.330;2023-03-01T00:51:43;-0.40;99.90
62998;DHT22;55949;52.590;7.330;2023-03-01T00:52:44;-0.40;99.90
62998;DHT22;55949;52.590;7.330;2023-03-01T00:53:45;-0.40;99.90
62998;DHT22;55949;52.590;7.330;2023-03-01T00:54:46;-0.50;99.90
62998;DHT22;55949;52.590;7.330;2023-03-01T00:55:47;-0.40;99.90
62998;DHT22;55949;52.590;7.330;2023-03-01T00:56:48;-0.30;99.90
62998;DHT22;55949;52.590;7.330;2023-03-01T00:57:48;-0.30;99.90
62998;DHT22;55949;52.590;7.330;2023-03-01T00:58:49;-0.30;99.90
62998;DHT22;55949;52.590;7.330;2023-03-01T00:59:50;-0.30;99.90
62998;DHT22;55949;52.590;7.330;2023-03-01T01:00:52;-0.40;99.90
62998;DHT22;55949;52.590;7.330;2023-03-01T01:01:53;-0.40;99.90
62998;DHT22;55949;52.590;7.330;2023-03-01T01:02:53;-0.30;99.90
62998;DHT22;55949;52.590;7.330;2023-03-01T01:04:06;-0.30;99.90
62998;DHT22;55949;52.590;7.330;2023-03-01T01:05:08;-0.30;99.90
62998;DHT22;55949;52.590;7.330;2023-03-01T01:06:14;-0.40;99.90
62998;DHT22;55949;52.590;7.330;2023-03-01T01:07:15;-0.30;99.90
62998;DHT22;55949;52.590;7.330;2023-03-01T01:08:16;-0.30;99.90
62998;DHT22;55949;52.590;7.330;2023-03-01T01:09:17;-0.30;99.90
62998;DHT22;55949;52.590;7.330;2023-03-01T01:10:18;-0.40;99.90
62998;DHT22;55949;52.590;7.330;2023-03-01T01:11:23;-0.60;99.90
62998;DHT22;55949;52.590;7.330;2023-03-01T01:12:24;-0.70;99.90
62998;DHT22;55949;52.590;7.330;2023-03-01T01:13:25;-0.80;99.90
62998;DHT22;55949;52.590;7.330;2023-03-01T01:14:25;-0.90;99.90
62998;DHT22;55949;52.590;7.330;2023-03-01T01:15:26;-0.90;99.90
62998;DHT22;55949;52.590;7.330;2023-03-01T01:16:28;-0.80;99.90
62998;DHT22;55949;52.590;7.330;2023-03-01T01:17:29;-0.80;99.90
62998;DHT22;55949;52.590;7.330;2023-03-01T01:18:30;-0.90;99.90
62998;DHT22;55949;52.590;7.330;2023-03-01T01:19:30;-1.00;99.90
62998;DHT22;55949;52.590;7.330;2023-03-01T01:20:31;-1.00;99.90
62998;DHT22;55949;52.590;7.330;2023-03-01T01:21:32;-1.00;99.90
62998;DHT22;55949;52.590;7.330;2023-03-01T01:22:33;-1.00;99.90
62998;DHT22;55949;52.590;7.330;2023-03-01T01:23:33;-0.90;99.90
62998;DHT22;55949;52.590;7.330;2023-03-01T01:24:34;-0.90;99.90
62998;DHT22;55949;52.590;7.330;2023-03-01T01:25:36;-0.70;99.90
62998;DHT22;55949;52.590;7.330;2023-03-01T01:26:37;-0.70;99.90
62998;DHT22;55949;52.590;7.330;2023-03-01T01:27:38;-0.60;99.90
62998;DHT22;55949;52.590;7.330;2023-03-01T01:28:39;-0.70;99.90
62998;DHT22;55949;52.590;7.330;2023-03-01T01:29:39;-0.80;99.90
62998;DHT22;55949;52.590;7.330;2023-03-01T01:30:42;-0.80;99.90
62998;DHT22;55949;52.590;7.330;2023-03-01T01:31:43;-0.80;99.90
62998;DHT22;55949;52.590;7.330;2023-03-01T01:32:44;-0.80;99.90
62998;DHT22;55949;52.590;7.330;2023-03-01T01:33:45;-0.90;99.90
62998;DHT22;55949;52.590;7.330;2023-03-01T01:34:46;-0.90;99.90
62998;DHT22;55949;52.590;7.330;2023-03-01T01:35:46;-0.90;99.90
62998;DHT22;55949;52.590;7.330;2023-03-01T01:36:49;-0.90;99.90
62998;DHT22;55949;52.590;7.330;2023-03-01T01:37:50;-0.90;99.90
62998;DHT22;55949;52.590;7.330;2023-03-01T01:38:51;-1.00;99.90
62998;DHT22;55949;52.590;7.330;2023-03-01T01:39:51;-1.00;99.90
62998;DHT22;55949;52.590;7.330;2023-03-01T01:40:52;-0.90;99.90
62998;DHT22;55949;52.590;7.330;2023-03-01T01:41:53;-0.80;99.90
62998;DHT22;55949;52.590;7.330;2023-03-01T01:42:54;-0.80;99.90
62998;DHT22;55949;52.590;7.330;2023-03-01T01:44:15;-0.90;99.90
62998;DHT22;55949;52.590;7.330;2023-03-01T01:45:36;-0.80;99.90
62998;DHT22;55949;52.590;7.330;2023-03-01T01:47:32;-0.80;99.90
62998;DHT22;55949;52.590;7.330;2023-03-01T01:48:36;-0.90;99.90
62998;DHT22;55949;52.590;7.330;2023-03-01T01:49:44;-0.90;99.90
62998;DHT22;55949;52.590;7.330;2023-03-01T01:50:45;-1.00;99.90
62998;DHT22;55949;52.590;7.330;2023-03-01T01:51:49;-1.00;99.90
62998;DHT22;55949;52.590;7.330;2023-03-01T01:52:52;-1.10;99.90
62998;DHT22;55949;52.590;7.330;2023-03-01T01:53:58;-1.10;99.90
62998;DHT22;55949;52.590;7.330;2023-03-01T01:55:36;-1.20;99.90
62998;DHT22;55949;52.590;7.330;2023-03-01T01:56:30;-1.20;99.90
62998;DHT22;55949;52.590;7.330;2023-03-01T01:57:51;-1.20;99.90
62998;DHT22;55949;52.590;7.330;2023-03-01T01:58:53;-1.20;99.90
62998;DHT22;55949;52.590;7.330;2023-03-01T01:59:57;-1.10;99.90
62998;DHT22;55949;52.590;7.330;2023-03-01T02:01:00;-1.10;99.90
62998;DHT22;55949;52.590;7.330;2023-03-01T02:02:03;-1.10;99.90
62998;DHT22;55949;52.590;7.330;2023-03-01T02:03:10;-1.10;99.90
62998;DHT22;55949;52.590;7.330;2023-03-01T02:04:12;-1.10;99.90
62998;DHT22;55949;52.590;7.330;2023-03-01T02:06:49;-1.10;99.90
62998;DHT22;55949;52.590;7.330;2023-03-01T02:07:52;-1.10;99.90
62998;DHT22;55949;52.590;7.330;2023-03-01T02:08:53;-1.10;99.90
62998;DHT22;55949;52.590;7.330;2023-03-01T02:09:54;-1.00;99.90
62998;DHT22;55949;52.590;7.330;2023-03-01T02:10:55;-1.10;99.90
62998;DHT22;55949;52.590;7.330;2023-03-01T02:11:57;-1.10;99.90
62998;DHT22;55949;52.590;7.330;2023-03-01T02:12:58;-1.10;99.90
62998;DHT22;55949;52.590;7.330;2023-03-01T02:14:00;-1.10;99.90
62998;DHT22;55949;52.590;7.330;2023-03-01T02:15:01;-1.10;99.90
62998;DHT22;55949;52.590;7.330;2023-03-01T02:16:08;-1.10;99.90
62998;DHT22;55949;52.590;7.330;2023-03-01T02:17:11;-1.10;99.90
62998;DHT22;55949;52.590;7.330;2023-03-01T02:18:15;-1.10;99.90
62998;DHT22;55949;52.590;7.330;2023-03-01T02:22:26;-1.20;99.90
62998;DHT22;55949;52.590;7.330;2023-03-01T02:23:28;-1.20;99.90
62998;DHT22;55949;52.590;7.330;2023-03-01T02:25:51;-1.20;99.90
62998;DHT22;55949;52.590;7.330;2023-03-01T02:26:55;-1.20;99.90
62998;DHT22;55949;52.590;7.330;2023-03-01T02:29:18;-1.30;99.90
62998;DHT22;55949;52.590;7.330;2023-03-01T02:30:21;-1.30;99.90
62998;DHT22;55949;52.590;7.330;2023-03-01T02:31:22;-1.30;99.90
62998;DHT22;55949;52.590;7.330;2023-03-01T02:32:42;-1.40;99.90
62998;DHT22;55949;52.590;7.330;2023-03-01T02:33:44;-1.30;99.90
62998;DHT22;55949;52.590;7.330;2023-03-01T02:34:45;-1.30;99.90
62998;DHT22;55949;52.590;7.330;2023-03-01T02:35:46;-1.30;99.90
62998;DHT22;55949;52.590;7.330;2023-03-01T02:37:22;-1.30;99.90
62998;DHT22;55949;52.590;7.330;2023-03-01T02:38:21;-1.30;99.90
62998;DHT22;55949;52.590;7.330;2023-03-01T02:39:39;-1.30;99.90
62998;DHT22;55949;52.590;7.330;2023-03-01T02:40:42;-1.30;99.90
62998;DHT22;55949;52.590;7.330;2023-03-01T02:41:51;-1.40;99.90
62998;DHT22;55949;52.590;7.330;2023-03-01T02:42:55;-1.40;99.90
62998;DHT22;55949;52.590;7.330;2023-03-01T02:43:56;-1.40;99.90
62998;DHT22;55949;52.590;7.330;2023-03-01T02:44:57;-1.40;99.90
62998;DHT22;55949;52.590;7.330;2023-03-01T02:46:01;-1.40;99.90
62998;DHT22;55949;52.590;7.330;2023-03-01T02:47:04;-1.40;99.90
62998;DHT22;55949;52.590;7.330;2023-03-01T02:48:06;-1.40;99.90
62998;DHT22;55949;52.590;7.330;2023-03-01T02:49:27;-1.40;99.90
62998;DHT22;55949;52.590;7.330;2023-03-01T02:53:16;-1.30;99.90
62998;DHT22;55949;52.590;7.330;2023-03-01T02:55:33;-1.40;99.90
62998;DHT22;55949;52.590;7.330;2023-03-01T02:56:34;-1.40;99.90
62998;DHT22;55949;52.590;7.330;2023-03-01T02:57:38;-1.40;99.90
62998;DHT22;55949;52.590;7.330;2023-03-01T02:58:41;-1.30;99.90
62998;DHT22;55949;52.590;7.330;2023-03-01T02:59:45;-1.30;99.90
62998;DHT22;55949;52.590;7.330;2023-03-01T03:00:46;-1.20;99.90
62998;DHT22;55949;52.590;7.330;2023-03-01T03:01:49;-1.30;99.90
62998;DHT22;55949;52.590;7.330;2023-03-01T03:02:51;-1.40;99.90
62998;DHT22;55949;52.590;7.330;2023-03-01T03:03:52;-1.30;99.90
62998;DHT22;55949;52.590;7.330;2023-03-01T03:04:53;-1.30;99.90
62998;DHT22;55949;52.590;7.330;2023-03-01T03:05:54;-1.30;99.90
62998;DHT22;55949;52.590;7.330;2023-03-01T03:06:54;-1.20;99.90
62998;DHT22;55949;52.590;7.330;2023-03-01T03:07:56;-1.20;99.90
62998;DHT22;55949;52.590;7.330;2023-03-01T03:08:57;-1.20;99.90
62998;DHT22;55949;52.590;7.330;2023-03-01T03:09:58;-1.20;99.90
62998;DHT22;55949;52.590;7.330;2023-03-01T03:10:58;-1.20;99.90
62998;DHT22;55949;52.590;7.330;2023-03-01T03:11:59;-1.20;99.90
62998;DHT22;55949;52.590;7.330;2023-03-01T03:13:03;-1.30;99.90
62998;DHT22;55949;52.590;7.330;2023-03-01T03:14:04;-1.30;99.90
62998;DHT22;55949;52.590;7.330;2023-03-01T03:15:07;-1.30;99.90
62998;DHT22;55949;52.590;7.330;2023-03-01T03:16:09;-1.30;99.90
62998;DHT22;55949;52.590;7.330;2023-03-01T03:17:09;-1.40;99.90
62998;DHT22;55949;52.590;7.330;2023-03-01T03:18:14;-1.40;99.90
62998;DHT22;55949;52.590;7.330;2023-03-01T03:19:18;-1.40;99.90
62998;DHT22;55949;52.590;7.330;2023-03-01T03:20:21;-1.40;99.90
62998;DHT22;55949;52.590;7.330;2023-03-01T03:21:22;-1.50;99.90
62998;DHT22;55949;52.590;7.330;2023-03-01T03:22:23;-1.60;99.90
62998;DHT22;55949;52.590;7.330;2023-03-01T03:23:24;-1.60;99.90
62998;DHT22;55949;52.590;7.330;2023-03-01T03:24:24;-1.60;99.90
62998;DHT22;55949;52.590;7.330;2023-03-01T03:25:27;-1.60;99.90
62998;DHT22;55949;52.590;7.330;2023-03-01T03:26:27;-1.60;99.90
62998;DHT22;55949;52.590;7.330;2023-03-01T03:27:28;-1.60;99.90
62998;DHT22;55949;52.590;7.330;2023-03-01T03:28:33;-1.70;99.90
62998;DHT22;55949;52.590;7.330;2023-03-01T03:29:34;-1.60;99.90
62998;DHT22;55949;52.590;7.330;2023-03-01T03:30:37;-1.60;99.90
62998;DHT22;55949;52.590;7.330;2023-03-01T03:31:39;-1.50;99.90
62998;DHT22;55949;52.590;7.330;2023-03-01T03:32:41;-1.40;99.90
62998;DHT22;55949;52.590;7.330;2023-03-01T03:33:42;-1.40;99.90
62998;DHT22;55949;52.590;7.330;2023-03-01T03:34:43;-1.50;99.90
62998;DHT22;55949;52.590;7.330;2023-03-01T03:35:45;-1.50;99.90
62998;DHT22;55949;52.590;7.330;2023-03-01T03:36:46;-1.40;99.90
62998;DHT22;55949;52.590;7.330;2023-03-01T03:37:47;-1.40;99.90
62998;DHT22;55949;52.590;7.330;2023-03-01T03:39:06;-1.40;99.90
62998;DHT22;55949;52.590;7.330;2023-03-01T03:40:07;-1.50;99.90
62998;DHT22;55949;52.590;7.330;2023-03-01T03:41:16;-1.60;99.90
62998;DHT22;55949;52.590;7.330;2023-03-01T03:42:16;-1.60;99.90
62998;DHT22;55949;52.590;7.330;2023-03-01T03:43:18;-1.60;99.90
62998;DHT22;55949;52.590;7.330;2023-03-01T03:44:20;-1.60;99.90
62998;DHT22;55949;52.590;7.330;2023-03-01T03:45:21;-1.60;99.90
62998;DHT22;55949;52.590;7.330;2023-03-01T03:46:22;-1.70;99.90
62998;DHT22;55949;52.590;7.330;2023-03-01T03:47:22;-1.70;99.90
62998;DHT22;55949;52.590;7.330;2023-03-01T03:48:24;-1.80;99.90
62998;DHT22;55949;52.590;7.330;2023-03-01T03:49:24;-1.70;99.90
62998;DHT22;55949;52.590;7.330;2023-03-01T03:50:25;-1.80;99.90
62998;DHT22;55949;52.590;7.330;2023-03-01T03:51:26;-1.70;99.90
62998;DHT22;55949;52.590;7.330;2023-03-01T03:52:27;-1.70;99.90
62998;DHT22;55949;52.590;7.330;2023-03-01T03:53:29;-1.70;99.90
62998;DHT22;55949;52.590;7.330;2023-03-01T03:54:29;-1.60;99.90
62998;DHT22;55949;52.590;7.330;2023-03-01T03:55:30;-1.60;99.90
62998;DHT22;55949;52.590;7.330;2023-03-01T03:56:31;-1.70;99.90
62998;DHT22;55949;52.590;7.330;2023-03-01T03:57:32;-1.80;99.90
62998;DHT22;55949;52.590;7.330;2023-03-01T03:58:33;-1.70;99.90
62998;DHT22;55949;52.590;7.330;2023-03-01T03:59:33;-1.70;99.90
62998;DHT22;55949;52.590;7.330;2023-03-01T04:01:36;-1.80;99.90
62998;DHT22;55949;52.590;7.330;2023-03-01T04:02:36;-1.70;99.90
62998;DHT22;55949;52.590;7.330;2023-03-01T04:03:37;-1.60;99.90
62998;DHT22;55949;52.590;7.330;2023-03-01T04:04:38;-1.60;99.90
62998;DHT22;55949;52.590;7.330;2023-03-01T04:05:39;-1.60;99.90
62998;DHT22;55949;52.590;7.330;2023-03-01T04:06:40;-1.60;99.90
62998;DHT22;55949;52.590;7.330;2023-03-01T04:07:42;-1.50;99.90
62998;DHT22;55949;52.590;7.330;2023-03-01T04:08:42;-1.50;99.90
62998;DHT22;55949;52.590;7.330;2023-03-01T04:09:43;-1.60;99.90
62998;DHT22;55949;52.590;7.330;2023-03-01T04:10:46;-1.70;99.90
62998;DHT22;55949;52.590;7.330;2023-03-01T04:11:47;-1.80;99.90
62998;DHT22;55949;52.590;7.330;2023-03-01T04:12:48;-1.90;99.90
62998;DHT22;55949;52.590;7.330;2023-03-01T04:13:49;-2.00;99.90
62998;DHT22;55949;52.590;7.330;2023-03-01T04:14:49;-2.00;99.90
62998;DHT22;55949;52.590;7.330;2023-03-01T04:15:51;-2.00;99.90
62998;DHT22;55949;52.590;7.330;2023-03-01T04:16:52;-2.00;99.90
62998;DHT22;55949;52.590;7.330;2023-03-01T04:17:54;-2.10;99.90
62998;DHT22;55949;52.590;7.330;2023-03-01T04:18:55;-2.10;99.90
62998;DHT22;55949;52.590;7.330;2023-03-01T04:19:55;-2.10;99.90
62998;DHT22;55949;52.590;7.330;2023-03-01T04:20:56;-2.10;99.90
62998;DHT22;55949;52.590;7.330;2023-03-01T04:21:57;-2.10;99.90
62998;DHT22;55949;52.590;7.330;2023-03-01T04:23:06;-2.00;99.90
62998;DHT22;55949;52.590;7.330;2023-03-01T07:35:36;-0.90;99.90
62998;DHT22;55949;52.590;7.330;2023-03-01T07:36:38;-0.60;99.90
62998;DHT22;55949;52.590;7.330;2023-03-01T07:37:40;-0.50;99.90
62998;DHT22;55949;52.590;7.330;2023-03-01T07:38:40;-0.40;99.90
62998;DHT22;55949;52.590;7.330;2023-03-01T07:39:41;-0.30;99.90
62998;DHT22;55949;52.590;7.330;2023-03-01T07:40:42;-0.10;99.90
62998;DHT22;55949;52.590;7.330;2023-03-01T07:41:43;-0.20;99.90
62998;DHT22;55949;52.590;7.330;2023-03-01T07:42:43;-0.20;99.90
62998;DHT22;55949;52.590;7.330;2023-03-01T07:43:44;-0.10;99.90
62998;DHT22;55949;52.590;7.330;2023-03-01T07:44:45;0.00;99.90
62998;DHT22;55949;52.590;7.330;2023-03-01T07:45:46;0.20;99.90
62998;DHT22;55949;52.590;7.330;2023-03-01T07:46:47;0.20;99.90
62998;DHT22;55949;52.590;7.330;2023-03-01T07:47:49;0.30;99.90
62998;DHT22;55949;52.590;7.330;2023-03-01T07:48:50;0.30;99.90
62998;DHT22;55949;52.590;7.330;2023-03-01T07:49:51;0.30;99.90
62998;DHT22;55949;52.590;7.330;2023-03-01T07:50:51;0.20;99.90
62998;DHT22;55949;52.590;7.330;2023-03-01T07:51:52;0.10;99.90
62998;DHT22;55949;52.590;7.330;2023-03-01T07:52:53;0.20;99.90
62998;DHT22;55949;52.590;7.330;2023-03-01T07:53:54;0.20;99.90
62998;DHT22;55949;52.590;7.330;2023-03-01T07:54:54;0.30;99.90
62998;DHT22;55949;52.590;7.330;2023-03-01T07:56:07;0.30;99.90
62998;DHT22;55949;52.590;7.330;2023-03-01T07:57:08;0.40;99.90
62998;DHT22;55949;52.590;7.330;2023-03-01T07:58:09;0.40;99.90
62998;DHT22;55949;52.590;7.330;2023-03-01T07:59:10;0.50;99.90
62998;DHT22;55949;52.590;7.330;2023-03-01T08:00:11;0.60;99.90
62998;DHT22;55949;52.590;7.330;2023-03-01T08:01:14;0.60;99.90
62998;DHT22;55949;52.590;7.330;2023-03-01T08:02:15;0.60;99.90
62998;DHT22;55949;52.590;7.330;2023-03-01T08:03:16;0.60;99.90
62998;DHT22;55949;52.590;7.330;2023-03-01T08:04:16;0.60;99.90
62998;DHT22;55949;52.590;7.330;2023-03-01T08:05:17;0.60;99.90
62998;DHT22;55949;52.590;7.330;2023-03-01T08:06:18;0.50;99.90
62998;DHT22;55949;52.590;7.330;2023-03-01T08:07:19;0.90;99.90
62998;DHT22;55949;52.590;7.330;2023-03-01T08:08:19;1.30;99.90
62998;DHT22;55949;52.590;7.330;2023-03-01T08:09:20;1.60;99.90
62998;DHT22;55949;52.590;7.330;2023-03-01T08:10:21;1.70;99.90
62998;DHT22;55949;52.590;7.330;2023-03-01T08:11:22;1.70;99.90
62998;DHT22;55949;52.590;7.330;2023-03-01T08:12:23;1.70;99.90
62998;DHT22;55949;52.590;7.330;2023-03-01T08:13:24;1.60;99.90
62998;DHT22;55949;52.590;7.330;2023-03-01T08:14:25;1.60;99.90
62998;DHT22;55949;52.590;7.330;2023-03-01T08:15:26;1.50;99.90
62998;DHT22;55949;52.590;7.330;2023-03-01T08:16:27;1.60;99.90
62998;DHT22;55949;52.590;7.330;2023-03-01T08:17:27;1.60;99.90
62998;DHT22;55949;52.590;7.330;2023-03-01T08:18:28;1.60;99.90
62998;DHT22;55949;52.590;7.330;2023-03-01T08:19:29;1.60;99.90
62998;DHT22;55949;52.590;7.330;2023-03-01T08:20:30;1.60;99.90
62998;DHT22;55949;52.590;7.330;2023-03-01T08:21:30;1.60;99.90
62998;DHT22;55949;52.590;7.330;2023-03-01T08:22:31;1.60;99.90
62998;DHT22;55949;52.590;7.330;2023-03-01T08:23:32;1.70;99.90
62998;DHT22;55949;52.590;7.330;2023-03-01T08:24:32;1.80;99.90
62998;DHT22;55949;52.590;7.330;2023-03-01T08:25:33;1.90;99.90
62998;DHT22;55949;52.590;7.330;2023-03-01T08:26:34;1.90;99.90
62998;DHT22;55949;52.590;7.330;2023-03-01T08:27:35;1.90;99.90
62998;DHT22;55949;52.590;7.330;2023-03-01T08:28:36;1.90;99.90
62998;DHT22;55949;52.590;7.330;2023-03-01T08:29:37;2.00;99.90
62998;DHT22;55949;52.590;7.330;2023-03-01T08:30:37;2.10;99.90
62998;DHT22;55949;52.590;7.330;2023-03-01T08:31:39;2.20;99.90
62998;DHT22;55949;52.590;7.330;2023-03-01T08:32:40;2.20;99.90
62998;DHT22;55949;52.590;7.330;2023-03-01T08:33:41;2.20;99.90
62998;DHT22;55949;52.590;7.330;2023-03-01T08:34:41;2.20;99.90
62998;DHT22;55949;52.590;7.330;2023-03-01T08:35:42;2.20;99.90
62998;DHT22;55949;52.590;7.330;2023-03-01T08:36:44;2.10;99.90
62998;DHT22;55949;52.590;7.330;2023-03-01T08:37:46;2.20;99.90
62998;DHT22;55949;52.590;7.330;2023-03-01T08:38:46;2.20;99.90
62998;DHT22;55949;52.590;7.330;2023-03-01T08:39:47;2.20;99.90
62998;DHT22;55949;52.590;7.330;2023-03-01T08:40:48;2.20;99.90
62998;DHT22;55949;52.590;7.330;2023-03-01T08:41:48;2.30;99.90
62998;DHT22;55949;52.590;7.330;2023-03-01T08:42:49;2.30;99.90
62998;DHT22;55949;52.590;7.330;2023-03-01T08:43:50;2.40;99.90
62998;DHT22;55949;52.590;7.330;2023-03-01T08:44:51;2.40;99.90
62998;DHT22;55949;52.590;7.330;2023-03-01T08:45:51;2.50;99.90
62998;DHT22;55949;52.590;7.330;2023-03-01T08:46:52;2.50;99.90
62998;DHT22;55949;52.590;7.330;2023-03-01T08:47:54;2.60;99.90
62998;DHT22;55949;52.590;7.330;2023-03-01T08:48:55;2.60;99.90
62998;DHT22;55949;52.590;7.330;2023-03-01T08:49:56;2.60;99.90
62998;DHT22;55949;52.590;7.330;2023-03-01T08:50:56;2.70;99.90
62998;DHT22;55949;52.590;7.330;2023-03-01T08:51:57;2.80;99.90
62998;DHT22;55949;52.590;7.330;2023-03-01T08:53:16;2.80;99.90
62998;DHT22;55949;52.590;7.330;2023-03-01T08:54:19;2.90;99.90
62998;DHT22;55949;52.590;7.330;2023-03-01T08:55:20;3.00;99.90
62998;DHT22;55949;52.590;7.330;2023-03-01T08:56:21;3.00;99.90
62998;DHT22;55949;52.590;7.330;2023-03-01T08:57:21;3.10;99.90
62998;DHT22;55949;52.590;7.330;2023-03-01T08:58:22;3.20;99.90
62998;DHT22;55949;52.590;7.330;2023-03-01T08:59:23;3.30;99.90
62998;DHT22;55949;52.590;7.330;2023-03-01T09:00:25;3.30;99.90
62998;DHT22;55949;52.590;7.330;2023-03-01T09:01:26;3.40;99.90
62998;DHT22;55949;52.590;7.330;2023-03-01T09:02:27;3.50;99.90
62998;DHT22;55949;52.590;7.330;2023-03-01T09:03:28;3.50;99.90
62998;DHT22;55949;52.590;7.330;2023-03-01T09:04:29;3.60;99.90
62998;DHT22;55949;52.590;7.330;2023-03-01T09:05:32;3.60;99.90
62998;DHT22;55949;52.590;7.330;2023-03-01T09:06:34;3.80;99.90
62998;DHT22;55949;52.590;7.330;2023-03-01T09:07:35;3.90;99.90
62998;DHT22;55949;52.590;7.330;2023-03-01T09:08:40;4.00;99.90
62998;DHT22;55949;52.590;7.330;2023-03-01T09:09:41;4.00;99.90
62998;DHT22;55949;52.590;7.330;2023-03-01T09:10:41;4.10;99.90
62998;DHT22;55949;52.590;7.330;2023-03-01T09:11:43;4.10;99.90
62998;DHT22;55949;52.590;7.330;2023-03-01T09:12:46;4.20;99.90
62998;DHT22;55949;52.590;7.330;2023-03-01T09:13:48;4.20;99.90
62998;DHT22;55949;52.590;7.330;2023-03-01T09:14:49;4.30;99.90
62998;DHT22;55949;52.590;7.330;2023-03-01T09:15:50;4.30;99.90
62998;DHT22;55949;52.590;7.330;2023-03-01T09:16:50;4.40;99.90
62998;DHT22;55949;52.590;7.330;2023-03-01T09:17:51;4.40;99.90
62998;DHT22;55949;52.590;7.330;2023-03-01T09:18:53;4.40;99.90
62998;DHT22;55949;52.590;7.330;2023-03-01T09:19:54;4.40;99.90
62998;DHT22;55949;52.590;7.330;2023-03-01T09:21:15;4.40;99.90
62998;DHT22;55949;52.590;7.330;2023-03-01T09:22:16;4.50;99.90
62998;DHT22;55949;52.590;7.330;2023-03-01T09:23:17;4.50;99.90
62998;DHT22;55949;52.590;7.330;2023-03-01T09:24:19;4.60;99.90
62998;DHT22;55949;52.590;7.330;2023-03-01T09:25:20;4.60;99.90
62998;DHT22;55949;52.590;7.330;2023-03-01T09:26:23;4.60;99.90
62998;DHT22;55949;52.590;7.330;2023-03-01T09:27:23;4.60;99.90
62998;DHT22;55949;52.590;7.330;2023-03-01T09:28:25;4.60;99.90
62998;DHT22;55949;52.590;7.330;2023-03-01T09:29:26;4.70;99.90
62998;DHT22;55949;52.590;7.330;2023-03-01T09:30:26;4.70;99.90
62998;DHT22;55949;52.590;7.330;2023-03-01T09:31:27;4.80;99.90
62998;DHT22;55949;52.590;7.330;2023-03-01T09:32:30;4.80;99.90
62998;DHT22;55949;52.590;7.330;2023-03-01T09:33:32;4.80;99.90
62998;DHT22;55949;52.590;7.330;2023-03-01T09:34:33;5.00;99.90
62998;DHT22;55949;52.590;7.330;2023-03-01T09:36:05;5.00;99.90
62998;DHT22;55949;52.590;7.330;2023-03-01T09:37:06;5.10;99.90
62998;DHT22;55949;52.590;7.330;2023-03-01T09:38:06;5.20;99.90
62998;DHT22;55949;52.590;7.330;2023-03-01T09:39:07;5.20;99.90
62998;DHT22;55949;52.590;7.330;2023-03-01T09:40:17;5.20;99.90
62998;DHT22;55949;52.590;7.330;2023-03-01T09:42:46;5.30;99.90
62998;DHT22;55949;52.590;7.330;2023-03-01T09:43:53;5.20;99.90
62998;DHT22;55949;52.590;7.330;2023-03-01T09:45:10;5.10;99.90
62998;DHT22;55949;52.590;7.330;2023-03-01T09:46:14;5.00;99.90
62998;DHT22;55949;52.590;7.330;2023-03-01T09:47:25;4.90;99.90
62998;DHT22;55949;52.590;7.330;2023-03-01T09:48:29;4.80;99.90
62998;DHT22;55949;52.590;7.330;2023-03-01T09:49:38;4.60;99.90
62998;DHT22;55949;52.590;7.330;2023-03-01T09:50:41;4.60;99.90
62998;DHT22;55949;52.590;7.330;2023-03-01T09:52:04;4.50;99.90
62998;DHT22;55949;52.590;7.330;2023-03-01T09:53:17;4.50;99.90
62998;DHT22;55949;52.590;7.330;2023-03-01T09:54:18;4.40;99.90
62998;DHT22;55949;52.590;7.330;2023-03-01T09:55:33;4.50;99.90
62998;DHT22;55949;52.590;7.330;2023-03-01T09:56:44;4.50;99.90
62998;DHT22;55949;52.590;7.330;2023-03-01T09:57:56;4.50;99.90
62998;DHT22;55949;52.590;7.330;2023-03-01T10:00:47;4.60;99.90
62998;DHT22;55949;52.590;7.330;2023-03-01T10:01:58;4.60;99.90
62998;DHT22;55949;52.590;7.330;2023-03-01T10:03:13;4.70;99.90
62998;DHT22;55949;52.590;7.330;2023-03-01T10:06:06;4.90;99.90
62998;DHT22;55949;52.590;7.330;2023-03-01T10:09:16;5.00;99.90
62998;DHT22;55949;52.590;7.330;2023-03-01T10:10:43;5.00;99.90